sensor_id;sensor_type;location;lat;lon;timestamp;P1;durP1;ratioP1;P2;durP2;ratioP2
50932;SDS011;36921;49.006;9.292;2023-09-30T00:01:43;4.13;;;1.45;;
50932;SDS011;36921;49.006;9.292;2023-09-30T00:04:09;3.60;;;1.35;;
50932;SDS011;36921;49.006;9.292;2023-09-30T00:06:34;3.28;;;1.17;;
50932;SDS011;36921;49.006;9.292;2023-09-30T00:08:59;2.90;;;1.30;;
50932;SDS011;36921;49.006;9.292;2023-09-30T00:11:25;5.30;;;1.20;;
50932;SDS011;36921;49.006;9.292;2023-09-30T00:13:50;3.03;;;1.10;;
50932;SDS011;36921;49.006;9.292;2023-09-30T00:16:16;4.75;;;1.15;;
50932;SDS011;36921;49.006;9.292;2023-09-30T00:18:42;2.65;;;1.40;;
50932;SDS011;36921;49.006;9.292;2023-09-30T00:21:08;5.75;;;1.70;;
50932;SDS011;36921;49.006;9.292;2023-09-30T00:23:33;4.97;;;1.40;;
50932;SDS011;36921;49.006;9.292;2023-09-30T00:25:58;5.07;;;1.17;;
50932;SDS011;36921;49.006;9.292;2023-09-30T00:28:25;3.00;;;1.10;;
50932;SDS011;36921;49.006;9.292;2023-09-30T00:30:50;6.00;;;1.38;;
50932;SDS011;36921;49.006;9.292;2023-09-30T00:33:15;4.30;;;1.40;;
50932;SDS011;36921;49.006;9.292;2023-09-30T00:35:41;4.45;;;1.30;;
50932;SDS011;36921;49.006;9.292;2023-09-30T00:38:06;3.92;;;1.40;;
50932;SDS011;36921;49.006;9.292;2023-09-30T00:40:31;3.70;;;1.60;;
50932;SDS011;36921;49.006;9.292;2023-09-30T00:42:57;3.75;;;1.60;;
50932;SDS011;36921;49.006;9.292;2023-09-30T00:45:23;2.67;;;1.60;;
50932;SDS011;36921;49.006;9.292;2023-09-30T00:47:48;3.67;;;1.42;;
50932;SDS011;36921;49.006;9.292;2023-09-30T00:50:13;3.85;;;1.30;;
50932;SDS011;36921;49.006;9.292;2023-09-30T00:52:39;2.70;;;1.35;;
50932;SDS011;36921;49.006;9.292;2023-09-30T00:55:06;2.72;;;1.55;;
50932;SDS011;36921;49.006;9.292;2023-09-30T00:57:31;4.70;;;1.60;;
50932;SDS011;36921;49.006;9.292;2023-09-30T00:59:58;4.18;;;1.40;;
50932;SDS011;36921;49.006;9.292;2023-09-30T01:02:26;2.35;;;1.60;;
50932;SDS011;36921;49.006;9.292;2023-09-30T01:04:51;3.83;;;1.48;;
50932;SDS011;36921;49.006;9.292;2023-09-30T01:09:53;6.70;;;1.75;;
50932;SDS011;36921;49.006;9.292;2023-09-30T01:12:19;3.95;;;1.45;;
50932;SDS011;36921;49.006;9.292;2023-09-30T01:14:44;3.70;;;2.03;;
50932;SDS011;36921;49.006;9.292;2023-09-30T01:17:09;3.85;;;1.55;;
50932;SDS011;36921;49.006;9.292;2023-09-30T01:19:38;3.33;;;1.77;;
50932;SDS011;36921;49.006;9.292;2023-09-30T01:22:04;6.15;;;2.00;;
50932;SDS011;36921;49.006;9.292;2023-09-30T01:24:38;6.78;;;1.95;;
50932;SDS011;36921;49.006;9.292;2023-09-30T01:27:05;8.70;;;2.15;;
50932;SDS011;36921;49.006;9.292;2023-09-30T01:29:30;5.90;;;2.25;;
50932;SDS011;36921;49.006;9.292;2023-09-30T01:31:56;8.57;;;2.08;;
50932;SDS011;36921;49.006;9.292;2023-09-30T01:34:21;4.75;;;2.55;;
50932;SDS011;36921;49.006;9.292;2023-09-30T01:36:47;6.38;;;2.40;;
50932;SDS011;36921;49.006;9.292;2023-09-30T01:39:12;5.22;;;1.95;;
50932;SDS011;36921;49.006;9.292;2023-09-30T01:41:39;4.22;;;1.98;;
50932;SDS011;36921;49.006;9.292;2023-09-30T01:44:05;7.97;;;2.25;;
50932;SDS011;36921;49.006;9.292;2023-09-30T01:49:53;6.68;;;2.17;;
50932;SDS011;36921;49.006;9.292;2023-09-30T01:52:18;3.03;;;1.85;;
50932;SDS011;36921;49.006;9.292;2023-09-30T01:54:44;4.72;;;2.03;;
50932;SDS011;36921;49.006;9.292;2023-09-30T01:57:09;8.60;;;2.40;;
50932;SDS011;36921;49.006;9.292;2023-09-30T01:59:35;4.18;;;2.20;;
50932;SDS011;36921;49.006;9.292;2023-09-30T02:02:00;4.72;;;1.88;;
50932;SDS011;36921;49.006;9.292;2023-09-30T02:04:26;6.97;;;2.10;;
50932;SDS011;36921;49.006;9.292;2023-09-30T02:06:52;5.53;;;2.40;;
50932;SDS011;36921;49.006;9.292;2023-09-30T02:09:17;4.72;;;2.08;;
50932;SDS011;36921;49.006;9.292;2023-09-30T02:11:44;8.98;;;2.50;;
50932;SDS011;36921;49.006;9.292;2023-09-30T02:14:10;4.60;;;2.15;;
50932;SDS011;36921;49.006;9.292;2023-09-30T02:16:38;10.55;;;1.95;;
50932;SDS011;36921;49.006;9.292;2023-09-30T02:19:04;6.10;;;2.60;;
50932;SDS011;36921;49.006;9.292;2023-09-30T02:21:29;5.80;;;1.98;;
50932;SDS011;36921;49.006;9.292;2023-09-30T02:23:54;8.63;;;2.65;;
50932;SDS011;36921;49.006;9.292;2023-09-30T02:26:20;8.82;;;2.17;;
50932;SDS011;36921;49.006;9.292;2023-09-30T02:28:46;5.75;;;2.33;;
50932;SDS011;36921;49.006;9.292;2023-09-30T02:31:12;6.22;;;2.50;;
50932;SDS011;36921;49.006;9.292;2023-09-30T02:33:38;5.97;;;2.33;;
50932;SDS011;36921;49.006;9.292;2023-09-30T02:36:06;7.43;;;2.75;;
50932;SDS011;36921;49.006;9.292;2023-09-30T02:38:32;6.35;;;2.40;;
50932;SDS011;36921;49.006;9.292;2023-09-30T02:40:58;6.18;;;2.60;;
50932;SDS011;36921;49.006;9.292;2023-09-30T02:43:23;7.18;;;2.88;;
50932;SDS011;36921;49.006;9.292;2023-09-30T02:45:48;6.32;;;2.75;;
50932;SDS011;36921;49.006;9.292;2023-09-30T02:48:15;7.47;;;2.63;;
50932;SDS011;36921;49.006;9.292;2023-09-30T02:50:41;8.70;;;2.72;;
50932;SDS011;36921;49.006;9.292;2023-09-30T02:55:36;7.50;;;2.60;;
50932;SDS011;36921;49.006;9.292;2023-09-30T02:58:01;6.85;;;3.05;;
50932;SDS011;36921;49.006;9.292;2023-09-30T03:00:27;7.00;;;3.10;;
50932;SDS011;36921;49.006;9.292;2023-09-30T03:02:59;11.70;;;3.17;;
50932;SDS011;36921;49.006;9.292;2023-09-30T03:05:26;7.35;;;3.25;;
50932;SDS011;36921;49.006;9.292;2023-09-30T03:07:53;6.70;;;3.10;;
50932;SDS011;36921;49.006;9.292;2023-09-30T03:10:19;5.40;;;3.15;;
50932;SDS011;36921;49.006;9.292;2023-09-30T03:12:47;8.38;;;3.30;;
50932;SDS011;36921;49.006;9.292;2023-09-30T03:15:14;8.55;;;3.55;;
50932;SDS011;36921;49.006;9.292;2023-09-30T03:17:40;10.65;;;4.18;;
50932;SDS011;36921;49.006;9.292;2023-09-30T03:20:06;7.93;;;4.20;;
50932;SDS011;36921;49.006;9.292;2023-09-30T03:22:41;9.07;;;4.07;;
50932;SDS011;36921;49.006;9.292;2023-09-30T03:25:11;9.20;;;4.10;;
50932;SDS011;36921;49.006;9.292;2023-09-30T03:27:40;9.00;;;3.58;;
50932;SDS011;36921;49.006;9.292;2023-09-30T03:30:06;10.98;;;3.60;;
50932;SDS011;36921;49.006;9.292;2023-09-30T03:32:33;9.02;;;3.45;;
50932;SDS011;36921;49.006;9.292;2023-09-30T03:35:02;11.13;;;3.72;;
50932;SDS011;36921;49.006;9.292;2023-09-30T03:37:31;8.90;;;3.72;;
50932;SDS011;36921;49.006;9.292;2023-09-30T03:39:56;11.65;;;4.13;;
50932;SDS011;36921;49.006;9.292;2023-09-30T03:42:22;9.27;;;4.13;;
50932;SDS011;36921;49.006;9.292;2023-09-30T03:44:48;13.27;;;5.60;;
50932;SDS011;36921;49.006;9.292;2023-09-30T03:47:14;9.48;;;4.47;;
50932;SDS011;36921;49.006;9.292;2023-09-30T03:49:42;9.48;;;4.30;;
50932;SDS011;36921;49.006;9.292;2023-09-30T03:52:08;11.90;;;4.82;;
50932;SDS011;36921;49.006;9.292;2023-09-30T03:54:35;8.55;;;4.82;;
50932;SDS011;36921;49.006;9.292;2023-09-30T03:57:00;14.80;;;4.97;;
50932;SDS011;36921;49.006;9.292;2023-09-30T03:59:26;9.73;;;4.40;;
50932;SDS011;36921;49.006;9.292;2023-09-30T04:01:52;8.38;;;4.53;;
50932;SDS011;36921;49.006;9.292;2023-09-30T04:04:19;13.25;;;5.47;;
50932;SDS011;36921;49.006;9.292;2023-09-30T04:06:46;11.27;;;5.80;;
50932;SDS011;36921;49.006;9.292;2023-09-30T04:09:13;10.98;;;5.07;;
50932;SDS011;36921;49.006;9.292;2023-09-30T04:11:39;12.60;;;5.53;;
50932;SDS011;36921;49.006;9.292;2023-09-30T04:14:07;9.20;;;5.35;;
50932;SDS011;36921;49.006;9.292;2023-09-30T04:16:34;11.25;;;5.55;;
50932;SDS011;36921;49.006;9.292;2023-09-30T04:19:00;15.85;;;6.20;;
50932;SDS011;36921;49.006;9.292;2023-09-30T04:21:26;13.73;;;5.82;;
50932;SDS011;36921;49.006;9.292;2023-09-30T04:23:53;15.63;;;5.78;;
50932;SDS011;36921;49.006;9.292;2023-09-30T04:26:25;15.18;;;6.30;;
50932;SDS011;36921;49.006;9.292;2023-09-30T04:28:51;9.73;;;5.05;;
50932;SDS011;36921;49.006;9.292;2023-09-30T04:31:28;14.15;;;5.80;;
50932;SDS011;36921;49.006;9.292;2023-09-30T04:33:54;12.63;;;5.97;;
50932;SDS011;36921;49.006;9.292;2023-09-30T04:36:21;11.30;;;6.20;;
50932;SDS011;36921;49.006;9.292;2023-09-30T04:38:48;18.15;;;10.32;;
50932;SDS011;36921;49.006;9.292;2023-09-30T04:41:13;13.90;;;7.03;;
50932;SDS011;36921;49.006;9.292;2023-09-30T04:43:40;15.25;;;7.90;;
50932;SDS011;36921;49.006;9.292;2023-09-30T04:46:06;13.80;;;6.80;;
50932;SDS011;36921;49.006;9.292;2023-09-30T04:48:34;9.75;;;5.75;;
50932;SDS011;36921;49.006;9.292;2023-09-30T04:51:00;11.77;;;6.05;;
50932;SDS011;36921;49.006;9.292;2023-09-30T04:53:29;13.80;;;6.35;;
50932;SDS011;36921;49.006;9.292;2023-09-30T04:55:55;9.52;;;5.70;;
50932;SDS011;36921;49.006;9.292;2023-09-30T04:58:22;12.30;;;6.20;;
50932;SDS011;36921;49.006;9.292;2023-09-30T05:00:49;13.38;;;7.05;;
50932;SDS011;36921;49.006;9.292;2023-09-30T05:03:14;14.63;;;6.05;;
50932;SDS011;36921;49.006;9.292;2023-09-30T05:05:39;15.10;;;6.05;;
50932;SDS011;36921;49.006;9.292;2023-09-30T05:08:05;10.40;;;5.50;;
50932;SDS011;36921;49.006;9.292;2023-09-30T05:10:31;9.68;;;4.82;;
50932;SDS011;36921;49.006;9.292;2023-09-30T05:12:56;9.27;;;4.80;;
50932;SDS011;36921;49.006;9.292;2023-09-30T05:15:22;8.10;;;4.88;;
50932;SDS011;36921;49.006;9.292;2023-09-30T05:17:48;9.23;;;4.75;;
50932;SDS011;36921;49.006;9.292;2023-09-30T05:20:14;9.35;;;4.50;;
50932;SDS011;36921;49.006;9.292;2023-09-30T05:22:42;9.00;;;4.60;;
50932;SDS011;36921;49.006;9.292;2023-09-30T05:25:10;7.68;;;4.45;;
50932;SDS011;36921;49.006;9.292;2023-09-30T05:27:36;12.88;;;5.75;;
50932;SDS011;36921;49.006;9.292;2023-09-30T05:30:03;11.95;;;5.28;;
50932;SDS011;36921;49.006;9.292;2023-09-30T05:32:34;7.97;;;5.37;;
50932;SDS011;36921;49.006;9.292;2023-09-30T05:35:03;14.70;;;5.93;;
50932;SDS011;36921;49.006;9.292;2023-09-30T05:37:32;9.00;;;5.20;;
50932;SDS011;36921;49.006;9.292;2023-09-30T05:39:57;9.43;;;4.95;;
50932;SDS011;36921;49.006;9.292;2023-09-30T05:42:23;9.18;;;4.60;;
50932;SDS011;36921;49.006;9.292;2023-09-30T05:44:49;7.35;;;4.95;;
50932;SDS011;36921;49.006;9.292;2023-09-30T05:47:14;6.20;;;4.28;;
50932;SDS011;36921;49.006;9.292;2023-09-30T05:49:40;8.38;;;4.88;;
50932;SDS011;36921;49.006;9.292;2023-09-30T05:52:06;10.00;;;5.75;;
50932;SDS011;36921;49.006;9.292;2023-09-30T05:54:32;8.90;;;4.38;;
50932;SDS011;36921;49.006;9.292;2023-09-30T05:56:57;13.10;;;5.25;;
50932;SDS011;36921;49.006;9.292;2023-09-30T05:59:23;12.52;;;5.28;;
50932;SDS011;36921;49.006;9.292;2023-09-30T06:01:50;9.70;;;4.97;;
50932;SDS011;36921;49.006;9.292;2023-09-30T06:04:16;15.23;;;5.53;;
50932;SDS011;36921;49.006;9.292;2023-09-30T06:06:41;8.18;;;4.28;;
50932;SDS011;36921;49.006;9.292;2023-09-30T06:09:08;11.10;;;4.32;;
50932;SDS011;36921;49.006;9.292;2023-09-30T06:11:33;8.10;;;4.70;;
50932;SDS011;36921;49.006;9.292;2023-09-30T06:14:00;10.45;;;4.25;;
50932;SDS011;36921;49.006;9.292;2023-09-30T06:16:27;10.07;;;3.90;;
50932;SDS011;36921;49.006;9.292;2023-09-30T06:18:52;9.30;;;3.92;;
50932;SDS011;36921;49.006;9.292;2023-09-30T06:21:19;11.80;;;4.03;;
50932;SDS011;36921;49.006;9.292;2023-09-30T06:23:49;6.32;;;3.70;;
50932;SDS011;36921;49.006;9.292;2023-09-30T06:26:18;9.80;;;3.60;;
50932;SDS011;36921;49.006;9.292;2023-09-30T06:28:44;7.53;;;3.03;;
50932;SDS011;36921;49.006;9.292;2023-09-30T06:31:11;5.80;;;3.30;;
50932;SDS011;36921;49.006;9.292;2023-09-30T06:33:37;7.30;;;3.85;;
50932;SDS011;36921;49.006;9.292;2023-09-30T06:36:10;6.95;;;3.28;;
50932;SDS011;36921;49.006;9.292;2023-09-30T06:38:39;12.38;;;3.10;;
50932;SDS011;36921;49.006;9.292;2023-09-30T06:41:06;10.48;;;3.75;;
50932;SDS011;36921;49.006;9.292;2023-09-30T06:43:33;6.88;;;3.50;;
50932;SDS011;36921;49.006;9.292;2023-09-30T06:46:04;11.32;;;3.65;;
50932;SDS011;36921;49.006;9.292;2023-09-30T06:48:32;12.00;;;3.90;;
50932;SDS011;36921;49.006;9.292;2023-09-30T06:50:58;9.70;;;3.67;;
50932;SDS011;36921;49.006;9.292;2023-09-30T06:53:24;5.72;;;3.08;;
50932;SDS011;36921;49.006;9.292;2023-09-30T06:55:49;13.75;;;3.08;;
50932;SDS011;36921;49.006;9.292;2023-09-30T06:58:16;12.80;;;2.80;;
50932;SDS011;36921;49.006;9.292;2023-09-30T07:00:46;13.23;;;3.03;;
50932;SDS011;36921;49.006;9.292;2023-09-30T07:03:12;6.68;;;2.95;;
50932;SDS011;36921;49.006;9.292;2023-09-30T07:05:40;5.63;;;2.83;;
50932;SDS011;36921;49.006;9.292;2023-09-30T07:08:05;6.45;;;3.28;;
50932;SDS011;36921;49.006;9.292;2023-09-30T07:10:31;8.00;;;2.72;;
50932;SDS011;36921;49.006;9.292;2023-09-30T07:12:56;5.63;;;2.45;;
50932;SDS011;36921;49.006;9.292;2023-09-30T07:15:22;5.60;;;2.67;;
50932;SDS011;36921;49.006;9.292;2023-09-30T07:17:47;5.10;;;2.50;;
50932;SDS011;36921;49.006;9.292;2023-09-30T07:20:13;6.78;;;2.78;;
50932;SDS011;36921;49.006;9.292;2023-09-30T07:22:39;5.05;;;2.63;;
50932;SDS011;36921;49.006;9.292;2023-09-30T07:25:05;6.35;;;2.47;;
50932;SDS011;36921;49.006;9.292;2023-09-30T07:27:31;5.85;;;2.58;;
50932;SDS011;36921;49.006;9.292;2023-09-30T07:29:56;9.05;;;2.20;;
50932;SDS011;36921;49.006;9.292;2023-09-30T07:32:22;6.55;;;2.65;;
50932;SDS011;36921;49.006;9.292;2023-09-30T07:34:48;5.00;;;2.50;;
50932;SDS011;36921;49.006;9.292;2023-09-30T07:37:14;5.85;;;2.83;;
50932;SDS011;36921;49.006;9.292;2023-09-30T07:39:40;6.43;;;2.67;;
50932;SDS011;36921;49.006;9.292;2023-09-30T07:42:08;6.88;;;3.00;;
50932;SDS011;36921;49.006;9.292;2023-09-30T07:44:34;5.53;;;2.73;;
50932;SDS011;36921;49.006;9.292;2023-09-30T07:47:01;8.52;;;2.92;;
50932;SDS011;36921;49.006;9.292;2023-09-30T07:49:28;6.75;;;2.92;;
50932;SDS011;36921;49.006;9.292;2023-09-30T07:51:55;5.20;;;2.42;;
50932;SDS011;36921;49.006;9.292;2023-09-30T07:54:20;5.75;;;2.88;;
50932;SDS011;36921;49.006;9.292;2023-09-30T07:56:46;6.20;;;2.38;;
50932;SDS011;36921;49.006;9.292;2023-09-30T07:59:11;6.78;;;2.50;;
50932;SDS011;36921;49.006;9.292;2023-09-30T08:01:38;6.32;;;2.65;;
50932;SDS011;36921;49.006;9.292;2023-09-30T08:04:03;9.38;;;3.10;;
50932;SDS011;36921;49.006;9.292;2023-09-30T08:06:29;10.70;;;2.72;;
50932;SDS011;36921;49.006;9.292;2023-09-30T08:08:54;8.52;;;3.20;;
50932;SDS011;36921;49.006;9.292;2023-09-30T08:11:20;6.72;;;2.72;;
50932;SDS011;36921;49.006;9.292;2023-09-30T08:13:46;6.57;;;2.63;;
50932;SDS011;36921;49.006;9.292;2023-09-30T08:16:11;5.72;;;3.08;;
50932;SDS011;36921;49.006;9.292;2023-09-30T08:18:37;8.95;;;3.08;;
50932;SDS011;36921;49.006;9.292;2023-09-30T08:21:02;7.45;;;2.88;;
50932;SDS011;36921;49.006;9.292;2023-09-30T08:23:28;7.88;;;3.30;;
50932;SDS011;36921;49.006;9.292;2023-09-30T08:25:57;5.97;;;2.50;;
50932;SDS011;36921;49.006;9.292;2023-09-30T08:28:23;6.20;;;2.80;;
50932;SDS011;36921;49.006;9.292;2023-09-30T08:30:49;5.40;;;2.17;;
50932;SDS011;36921;49.006;9.292;2023-09-30T08:33:15;7.00;;;2.83;;
50932;SDS011;36921;49.006;9.292;2023-09-30T08:35:41;7.45;;;2.20;;
50932;SDS011;36921;49.006;9.292;2023-09-30T08:38:07;5.38;;;1.95;;
50932;SDS011;36921;49.006;9.292;2023-09-30T08:40:32;5.15;;;2.20;;
50932;SDS011;36921;49.006;9.292;2023-09-30T08:42:57;4.75;;;2.00;;
50932;SDS011;36921;49.006;9.292;2023-09-30T08:45:24;6.07;;;2.25;;
50932;SDS011;36921;49.006;9.292;2023-09-30T08:47:54;7.80;;;2.75;;
50932;SDS011;36921;49.006;9.292;2023-09-30T08:50:19;5.38;;;2.08;;
50932;SDS011;36921;49.006;9.292;2023-09-30T08:52:46;4.82;;;2.25;;
50932;SDS011;36921;49.006;9.292;2023-09-30T08:55:13;7.75;;;2.42;;
50932;SDS011;36921;49.006;9.292;2023-09-30T08:57:39;7.47;;;2.70;;
50932;SDS011;36921;49.006;9.292;2023-09-30T09:00:07;7.55;;;2.63;;
50932;SDS011;36921;49.006;9.292;2023-09-30T09:02:36;9.55;;;2.58;;
50932;SDS011;36921;49.006;9.292;2023-09-30T09:05:02;6.50;;;2.75;;
50932;SDS011;36921;49.006;9.292;2023-09-30T09:07:31;5.75;;;2.35;;
50932;SDS011;36921;49.006;9.292;2023-09-30T09:10:03;10.18;;;3.05;;
50932;SDS011;36921;49.006;9.292;2023-09-30T09:12:34;7.35;;;2.90;;
50932;SDS011;36921;49.006;9.292;2023-09-30T09:15:00;6.43;;;2.83;;
50932;SDS011;36921;49.006;9.292;2023-09-30T09:17:39;7.03;;;2.70;;
50932;SDS011;36921;49.006;9.292;2023-09-30T09:20:07;5.45;;;2.50;;
50932;SDS011;36921;49.006;9.292;2023-09-30T09:22:38;6.83;;;2.70;;
50932;SDS011;36921;49.006;9.292;2023-09-30T09:25:07;5.28;;;2.10;;
50932;SDS011;36921;49.006;9.292;2023-09-30T09:27:36;8.27;;;2.47;;
50932;SDS011;36921;49.006;9.292;2023-09-30T09:30:15;8.65;;;2.80;;
50932;SDS011;36921;49.006;9.292;2023-09-30T09:35:19;5.82;;;2.47;;
50932;SDS011;36921;49.006;9.292;2023-09-30T09:38:08;6.03;;;2.65;;
50932;SDS011;36921;49.006;9.292;2023-09-30T09:40:33;6.63;;;3.10;;
50932;SDS011;36921;49.006;9.292;2023-09-30T09:43:05;9.10;;;3.15;;
50932;SDS011;36921;49.006;9.292;2023-09-30T09:45:35;5.57;;;2.60;;
50932;SDS011;36921;49.006;9.292;2023-09-30T09:48:03;6.55;;;2.78;;
50932;SDS011;36921;49.006;9.292;2023-09-30T09:50:29;7.65;;;3.10;;
50932;SDS011;36921;49.006;9.292;2023-09-30T09:52:58;6.68;;;3.22;;
50932;SDS011;36921;49.006;9.292;2023-09-30T09:55:24;10.32;;;3.05;;
50932;SDS011;36921;49.006;9.292;2023-09-30T09:57:51;8.32;;;3.00;;
50932;SDS011;36921;49.006;9.292;2023-09-30T10:00:21;8.98;;;2.92;;
50932;SDS011;36921;49.006;9.292;2023-09-30T10:02:48;5.43;;;2.70;;
50932;SDS011;36921;49.006;9.292;2023-09-30T10:05:15;8.23;;;2.65;;
50932;SDS011;36921;49.006;9.292;2023-09-30T10:07:55;7.40;;;3.13;;
50932;SDS011;36921;49.006;9.292;2023-09-30T10:10:25;6.65;;;3.13;;
50932;SDS011;36921;49.006;9.292;2023-09-30T10:12:51;8.30;;;2.95;;
50932;SDS011;36921;49.006;9.292;2023-09-30T10:18:01;5.75;;;2.45;;
50932;SDS011;36921;49.006;9.292;2023-09-30T10:20:38;6.82;;;2.60;;
50932;SDS011;36921;49.006;9.292;2023-09-30T10:23:25;6.80;;;3.03;;
50932;SDS011;36921;49.006;9.292;2023-09-30T10:26:14;6.35;;;2.97;;
50932;SDS011;36921;49.006;9.292;2023-09-30T10:28:40;7.55;;;2.72;;
50932;SDS011;36921;49.006;9.292;2023-09-30T10:31:16;7.47;;;3.05;;
50932;SDS011;36921;49.006;9.292;2023-09-30T10:36:32;5.80;;;2.40;;
50932;SDS011;36921;49.006;9.292;2023-09-30T10:39:00;8.63;;;2.90;;
50932;SDS011;36921;49.006;9.292;2023-09-30T10:46:52;5.57;;;2.83;;
50932;SDS011;36921;49.006;9.292;2023-09-30T10:51:53;7.68;;;3.38;;
50932;SDS011;36921;49.006;9.292;2023-09-30T10:54:23;7.60;;;3.03;;
50932;SDS011;36921;49.006;9.292;2023-09-30T10:56:50;6.50;;;2.90;;
50932;SDS011;36921;49.006;9.292;2023-09-30T10:59:24;7.50;;;2.78;;
50932;SDS011;36921;49.006;9.292;2023-09-30T11:01:51;6.43;;;3.20;;
50932;SDS011;36921;49.006;9.292;2023-09-30T11:04:18;8.30;;;3.22;;
50932;SDS011;36921;49.006;9.292;2023-09-30T11:06:45;6.57;;;2.72;;
50932;SDS011;36921;49.006;9.292;2023-09-30T11:09:18;7.05;;;3.67;;
50932;SDS011;36921;49.006;9.292;2023-09-30T11:11:46;8.15;;;3.83;;
50932;SDS011;36921;49.006;9.292;2023-09-30T11:14:26;8.05;;;3.50;;
50932;SDS011;36921;49.006;9.292;2023-09-30T11:16:59;6.68;;;3.25;;
50932;SDS011;36921;49.006;9.292;2023-09-30T11:19:27;7.88;;;4.43;;
50932;SDS011;36921;49.006;9.292;2023-09-30T11:22:00;11.27;;;4.18;;
50932;SDS011;36921;49.006;9.292;2023-09-30T11:24:26;6.95;;;3.20;;
50932;SDS011;36921;49.006;9.292;2023-09-30T11:26:53;8.93;;;4.07;;
50932;SDS011;36921;49.006;9.292;2023-09-30T11:29:21;9.20;;;3.97;;
50932;SDS011;36921;49.006;9.292;2023-09-30T11:31:47;10.30;;;3.58;;
50932;SDS011;36921;49.006;9.292;2023-09-30T11:34:17;9.73;;;3.10;;
50932;SDS011;36921;49.006;9.292;2023-09-30T11:36:50;6.68;;;3.35;;
50932;SDS011;36921;49.006;9.292;2023-09-30T11:39:25;10.65;;;4.15;;
50932;SDS011;36921;49.006;9.292;2023-09-30T11:41:52;8.32;;;3.45;;
50932;SDS011;36921;49.006;9.292;2023-09-30T11:44:20;8.00;;;3.13;;
50932;SDS011;36921;49.006;9.292;2023-09-30T11:46:50;6.20;;;2.90;;
50932;SDS011;36921;49.006;9.292;2023-09-30T11:51:57;7.57;;;3.13;;
50932;SDS011;36921;49.006;9.292;2023-09-30T11:54:28;6.65;;;2.67;;
50932;SDS011;36921;49.006;9.292;2023-09-30T11:56:54;7.78;;;3.30;;
50932;SDS011;36921;49.006;9.292;2023-09-30T11:59:19;6.38;;;3.17;;
50932;SDS011;36921;49.006;9.292;2023-09-30T12:01:47;11.77;;;3.10;;
50932;SDS011;36921;49.006;9.292;2023-09-30T12:04:16;7.05;;;3.40;;
50932;SDS011;36921;49.006;9.292;2023-09-30T12:06:44;6.40;;;3.20;;
50932;SDS011;36921;49.006;9.292;2023-09-30T12:09:11;9.18;;;3.35;;
50932;SDS011;36921;49.006;9.292;2023-09-30T12:11:39;7.03;;;3.20;;
50932;SDS011;36921;49.006;9.292;2023-09-30T12:14:11;11.80;;;3.50;;
50932;SDS011;36921;49.006;9.292;2023-09-30T12:16:38;7.78;;;3.92;;
50932;SDS011;36921;49.006;9.292;2023-09-30T12:19:04;8.25;;;3.50;;
50932;SDS011;36921;49.006;9.292;2023-09-30T12:21:31;9.02;;;3.42;;
50932;SDS011;36921;49.006;9.292;2023-09-30T12:23:57;8.27;;;3.30;;
50932;SDS011;36921;49.006;9.292;2023-09-30T12:26:22;6.45;;;2.70;;
50932;SDS011;36921;49.006;9.292;2023-09-30T12:28:48;7.88;;;3.28;;
50932;SDS011;36921;49.006;9.292;2023-09-30T12:31:13;6.75;;;2.95;;
50932;SDS011;36921;49.006;9.292;2023-09-30T12:33:39;6.22;;;3.13;;
50932;SDS011;36921;49.006;9.292;2023-09-30T12:36:05;8.40;;;3.13;;
50932;SDS011;36921;49.006;9.292;2023-09-30T12:38:31;6.28;;;3.10;;
50932;SDS011;36921;49.006;9.292;2023-09-30T12:40:56;6.07;;;2.83;;
50932;SDS011;36921;49.006;9.292;2023-09-30T12:43:23;6.32;;;2.90;;
50932;SDS011;36921;49.006;9.292;2023-09-30T12:45:48;8.30;;;3.00;;
50932;SDS011;36921;49.006;9.292;2023-09-30T12:48:14;6.50;;;2.63;;
50932;SDS011;36921;49.006;9.292;2023-09-30T12:50:41;5.72;;;2.53;;
50932;SDS011;36921;49.006;9.292;2023-09-30T12:53:06;6.45;;;3.00;;
50932;SDS011;36921;49.006;9.292;2023-09-30T12:55:32;9.52;;;3.70;;
50932;SDS011;36921;49.006;9.292;2023-09-30T12:57:57;6.93;;;3.33;;
50932;SDS011;36921;49.006;9.292;2023-09-30T13:00:23;6.25;;;2.80;;
50932;SDS011;36921;49.006;9.292;2023-09-30T13:02:50;9.43;;;3.35;;
50932;SDS011;36921;49.006;9.292;2023-09-30T13:05:15;7.50;;;2.90;;
50932;SDS011;36921;49.006;9.292;2023-09-30T13:07:42;9.68;;;3.28;;
50932;SDS011;36921;49.006;9.292;2023-09-30T13:10:14;10.43;;;3.03;;
50932;SDS011;36921;49.006;9.292;2023-09-30T13:12:39;8.05;;;3.22;;
50932;SDS011;36921;49.006;9.292;2023-09-30T13:15:05;10.68;;;3.50;;
50932;SDS011;36921;49.006;9.292;2023-09-30T13:17:31;7.80;;;3.22;;
50932;SDS011;36921;49.006;9.292;2023-09-30T13:19:56;7.90;;;3.65;;
50932;SDS011;36921;49.006;9.292;2023-09-30T13:22:21;9.65;;;3.50;;
50932;SDS011;36921;49.006;9.292;2023-09-30T13:24:47;7.47;;;3.40;;
50932;SDS011;36921;49.006;9.292;2023-09-30T13:27:12;13.13;;;3.97;;
50932;SDS011;36921;49.006;9.292;2023-09-30T13:29:41;6.72;;;3.42;;
50932;SDS011;36921;49.006;9.292;2023-09-30T13:32:06;6.82;;;3.38;;
50932;SDS011;36921;49.006;9.292;2023-09-30T13:34:34;10.68;;;3.75;;
50932;SDS011;36921;49.006;9.292;2023-09-30T13:36:59;6.72;;;3.13;;
50932;SDS011;36921;49.006;9.292;2023-09-30T13:39:25;7.85;;;3.45;;
50932;SDS011;36921;49.006;9.292;2023-09-30T13:41:50;8.13;;;3.47;;
50932;SDS011;36921;49.006;9.292;2023-09-30T13:44:16;7.10;;;3.33;;
50932;SDS011;36921;49.006;9.292;2023-09-30T13:46:41;8.57;;;3.78;;
50932;SDS011;36921;49.006;9.292;2023-09-30T13:49:07;8.75;;;3.53;;
50932;SDS011;36921;49.006;9.292;2023-09-30T13:51:33;6.03;;;3.17;;
50932;SDS011;36921;49.006;9.292;2023-09-30T13:53:59;7.28;;;3.35;;
50932;SDS011;36921;49.006;9.292;2023-09-30T13:56:25;9.60;;;4.00;;
50932;SDS011;36921;49.006;9.292;2023-09-30T13:58:50;8.57;;;3.53;;
50932;SDS011;36921;49.006;9.292;2023-09-30T14:01:16;13.25;;;4.10;;
50932;SDS011;36921;49.006;9.292;2023-09-30T14:03:42;7.95;;;3.33;;
50932;SDS011;36921;49.006;9.292;2023-09-30T14:06:11;9.07;;;3.47;;
50932;SDS011;36921;49.006;9.292;2023-09-30T14:08:37;10.18;;;3.63;;
50932;SDS011;36921;49.006;9.292;2023-09-30T14:11:03;9.60;;;3.75;;
50932;SDS011;36921;49.006;9.292;2023-09-30T14:13:29;8.85;;;3.60;;
50932;SDS011;36921;49.006;9.292;2023-09-30T14:15:55;7.45;;;3.53;;
50932;SDS011;36921;49.006;9.292;2023-09-30T14:18:20;7.07;;;3.25;;
50932;SDS011;36921;49.006;9.292;2023-09-30T14:20:46;5.97;;;3.10;;
50932;SDS011;36921;49.006;9.292;2023-09-30T14:23:11;8.00;;;3.92;;
50932;SDS011;36921;49.006;9.292;2023-09-30T14:25:37;7.30;;;3.50;;
50932;SDS011;36921;49.006;9.292;2023-09-30T14:28:02;9.02;;;3.80;;
50932;SDS011;36921;49.006;9.292;2023-09-30T14:30:28;12.10;;;4.22;;
50932;SDS011;36921;49.006;9.292;2023-09-30T14:32:54;10.07;;;3.60;;
50932;SDS011;36921;49.006;9.292;2023-09-30T14:35:19;8.48;;;3.65;;
50932;SDS011;36921;49.006;9.292;2023-09-30T14:37:45;7.38;;;3.70;;
50932;SDS011;36921;49.006;9.292;2023-09-30T14:40:10;9.43;;;4.13;;
50932;SDS011;36921;49.006;9.292;2023-09-30T14:42:36;12.32;;;3.90;;
50932;SDS011;36921;49.006;9.292;2023-09-30T14:45:02;10.48;;;4.32;;
50932;SDS011;36921;49.006;9.292;2023-09-30T14:47:28;9.48;;;3.75;;
50932;SDS011;36921;49.006;9.292;2023-09-30T14:49:54;8.15;;;3.38;;
50932;SDS011;36921;49.006;9.292;2023-09-30T14:52:19;12.00;;;4.32;;
50932;SDS011;36921;49.006;9.292;2023-09-30T14:54:45;9.23;;;3.92;;
50932;SDS011;36921;49.006;9.292;2023-09-30T14:57:10;10.63;;;3.45;;
50932;SDS011;36921;49.006;9.292;2023-09-30T14:59:37;8.85;;;3.95;;
50932;SDS011;36921;49.006;9.292;2023-09-30T15:02:02;8.45;;;3.80;;
50932;SDS011;36921;49.006;9.292;2023-09-30T15:04:28;9.40;;;3.30;;
50932;SDS011;36921;49.006;9.292;2023-09-30T15:06:54;10.48;;;3.25;;
50932;SDS011;36921;49.006;9.292;2023-09-30T15:09:20;12.02;;;4.25;;
50932;SDS011;36921;49.006;9.292;2023-09-30T15:11:45;8.20;;;3.90;;